Time;durP1;ratioP1;P1;durP2;ratioP2;P2;SDS_P1;SDS_P2;PMS_P1;PMS_P2;Temp;Humidity;BMP_temperature;BMP_pressure;BME280_temperature;BME280_humidity;BME280_pressure;Samples;Min_cycle;Max_cycle;Signal;HPM_P1;HPM_P2
2023/12/20 00:00:53;;;;;;;9.20;3.90;;;;;;;;;;4971857;28;20606;-69
2023/12/20 00:03:18;;;;;;;8.35;3.58;;;;;;;;;;4971763;28;20054;-68
2023/12/20 00:05:44;;;;;;;8.07;3.72;;;;;;;;;;4971876;28;20094;-68
2023/12/20 00:08:09;;;;;;;6.13;3.25;;;;;;;;;;4975912;28;20018;-69
2023/12/20 00:10:34;;;;;;;7.20;3.25;;;;;;;;;;4973761;28;20014;-68
2023/12/20 00:12:59;;;;;;;8.18;3.50;;;;;;;;;;4971686;28;20061;-69
2023/12/20 00:15:25;;;;;;;6.68;3.08;;;;;;;;;;4970498;28;20081;-68
2023/12/20 00:17:50;;;;;;;5.53;2.80;;;;;;;;;;4967747;28;20085;-68
2023/12/20 00:20:15;;;;;;;6.75;3.60;;;;;;;;;;4970666;28;20103;-68
2023/12/20 00:22:40;;;;;;;7.32;3.05;;;;;;;;;;4971536;28;20030;-68
2023/12/20 00:25:06;;;;;;;7.10;3.47;;;;;;;;;;4970914;28;20095;-68
2023/12/20 00:27:31;;;;;;;6.95;3.22;;;;;;;;;;4971010;28;20031;-66
2023/12/20 00:29:56;;;;;;;6.88;3.35;;;;;;;;;;4967517;28;20098;-65
2023/12/20 00:32:21;;;;;;;7.13;2.80;;;;;;;;;;4971956;28;20496;-67
2023/12/20 00:34:47;;;;;;;5.88;2.78;;;;;;;;;;4967020;28;20043;-67
2023/12/20 00:37:12;;;;;;;6.65;2.90;;;;;;;;;;4966152;28;20102;-67
2023/12/20 00:39:37;;;;;;;5.95;3.05;;;;;;;;;;4970266;28;20035;-67
2023/12/20 00:42:02;;;;;;;4.85;2.63;;;;;;;;;;4969160;28;20019;-69
2023/12/20 00:44:28;;;;;;;8.13;3.00;;;;;;;;;;4970681;28;20034;-69
2023/12/20 00:46:53;;;;;;;7.40;3.25;;;;;;;;;;4969542;28;20019;-68
2023/12/20 00:49:18;;;;;;;5.20;2.58;;;;;;;;;;4970268;28;20030;-67
2023/12/20 00:51:43;;;;;;;7.13;2.30;;;;;;;;;;4970088;28;20133;-68
2023/12/20 00:54:09;;;;;;;5.53;2.50;;;;;;;;;;4969286;28;20655;-68
2023/12/20 00:56:34;;;;;;;4.57;2.58;;;;;;;;;;4969052;28;20905;-68
2023/12/20 00:58:59;;;;;;;3.30;1.90;;;;;;;;;;4969081;28;20056;-66
2023/12/20 01:01:24;;;;;;;3.17;1.70;;;;;;;;;;4976340;28;20102;-67
2023/12/20 01:03:51;;;;;;;4.28;2.28;;;;;;;;;;4968366;28;20070;-67
2023/12/20 01:06:16;;;;;;;4.63;2.05;;;;;;;;;;4969818;28;20026;-65
2023/12/20 01:08:41;;;;;;;3.88;1.85;;;;;;;;;;4970685;28;20372;-68
2023/12/20 01:11:07;;;;;;;4.38;2.03;;;;;;;;;;4970617;28;20019;-66
2023/12/20 01:13:32;;;;;;;5.15;2.00;;;;;;;;;;4970761;28;20093;-67
2023/12/20 01:15:57;;;;;;;4.30;1.90;;;;;;;;;;4970218;28;20046;-66
2023/12/20 01:18:22;;;;;;;3.38;2.00;;;;;;;;;;4970840;28;20054;-67
2023/12/20 01:20:48;;;;;;;5.30;2.13;;;;;;;;;;4971213;28;20069;-67
2023/12/20 01:23:13;;;;;;;5.28;2.13;;;;;;;;;;4968856;28;20027;-68
2023/12/20 01:25:38;;;;;;;3.20;1.63;;;;;;;;;;4970248;28;20049;-67
2023/12/20 01:28:04;;;;;;;2.63;1.42;;;;;;;;;;4969565;28;20390;-67
2023/12/20 01:30:29;;;;;;;3.17;1.67;;;;;;;;;;4968535;28;20041;-67
2023/12/20 01:32:54;;;;;;;3.85;1.80;;;;;;;;;;4970742;28;20019;-67
2023/12/20 01:35:19;;;;;;;3.70;1.63;;;;;;;;;;4970478;28;20015;-68
2023/12/20 01:37:45;;;;;;;3.42;1.70;;;;;;;;;;4969385;28;20050;-67
2023/12/20 01:40:10;;;;;;;4.60;1.77;;;;;;;;;;4969986;28;20451;-67
2023/12/20 01:42:35;;;;;;;3.38;1.60;;;;;;;;;;4970413;28;20030;-67
2023/12/20 01:45:00;;;;;;;4.00;1.70;;;;;;;;;;4969721;28;20034;-67
2023/12/20 01:47:27;;;;;;;4.57;1.67;;;;;;;;;;4967208;28;20011;-67
2023/12/20 01:49:52;;;;;;;3.03;1.55;;;;;;;;;;4970525;28;20022;-67
2023/12/20 01:52:17;;;;;;;5.47;1.70;;;;;;;;;;4970079;28;20034;-67
2023/12/20 01:54:43;;;;;;;4.72;1.98;;;;;;;;;;4969644;28;20058;-67
2023/12/20 01:57:08;;;;;;;2.53;1.40;;;;;;;;;;4969432;28;20019;-67
2023/12/20 01:59:34;;;;;;;3.15;1.50;;;;;;;;;;4969619;28;20015;-67
2023/12/20 02:02:00;;;;;;;3.08;1.60;;;;;;;;;;4969669;28;20026;-65
2023/12/20 02:04:25;;;;;;;2.72;1.40;;;;;;;;;;4970094;28;20018;-67
2023/12/20 02:06:52;;;;;;;3.80;1.92;;;;;;;;;;4969759;28;20026;-67
2023/12/20 02:09:18;;;;;;;4.60;1.73;;;;;;;;;;4968737;28;20059;-68
2023/12/20 02:11:43;;;;;;;2.88;1.55;;;;;;;;;;4970243;28;20046;-67
2023/12/20 02:14:08;;;;;;;2.83;1.50;;;;;;;;;;4969383;28;20030;-68
2023/12/20 02:16:33;;;;;;;3.05;1.63;;;;;;;;;;4969170;28;20018;-67
2023/12/20 02:18:59;;;;;;;3.20;1.70;;;;;;;;;;4970056;28;20443;-67
2023/12/20 02:21:34;;;;;;;2.85;1.50;;;;;;;;;;4970552;28;20034;-68
2023/12/20 02:24:00;;;;;;;4.32;1.58;;;;;;;;;;4969524;28;20027;-67
2023/12/20 02:26:25;;;;;;;2.65;1.42;;;;;;;;;;4969188;28;20029;-67
2023/12/20 02:28:50;;;;;;;2.83;1.63;;;;;;;;;;4969646;28;20110;-68
2023/12/20 02:31:15;;;;;;;2.78;1.40;;;;;;;;;;4965637;28;20514;-66
2023/12/20 02:33:42;;;;;;;2.00;1.30;;;;;;;;;;4970393;28;20479;-67
2023/12/20 02:36:07;;;;;;;2.92;1.80;;;;;;;;;;4969830;28;20026;-68
2023/12/20 02:38:32;;;;;;;3.10;1.58;;;;;;;;;;4968644;28;20393;-68
2023/12/20 02:40:57;;;;;;;2.80;1.48;;;;;;;;;;4968586;28;20671;-67
2023/12/20 02:43:23;;;;;;;4.18;2.10;;;;;;;;;;4970193;28;20015;-68
2023/12/20 02:45:48;;;;;;;4.32;1.65;;;;;;;;;;4969015;28;20030;-67
2023/12/20 02:48:13;;;;;;;3.53;1.40;;;;;;;;;;4965005;28;20383;-68
2023/12/20 02:50:38;;;;;;;3.50;1.80;;;;;;;;;;4970094;28;20015;-67
2023/12/20 02:53:04;;;;;;;4.30;1.77;;;;;;;;;;4969921;28;20411;-67
2023/12/20 02:55:29;;;;;;;3.83;1.90;;;;;;;;;;4970400;28;20015;-68
2023/12/20 02:57:54;;;;;;;4.13;2.00;;;;;;;;;;4969837;28;20031;-68
2023/12/20 03:00:19;;;;;;;2.58;1.55;;;;;;;;;;4969684;28;20018;-68
2023/12/20 03:02:44;;;;;;;2.95;1.58;;;;;;;;;;4970395;28;20038;-68
2023/12/20 03:05:10;;;;;;;3.75;1.70;;;;;;;;;;4970122;28;20022;-67
2023/12/20 03:07:36;;;;;;;3.63;1.67;;;;;;;;;;4974847;28;20471;-67
2023/12/20 03:10:01;;;;;;;3.15;1.80;;;;;;;;;;4968469;28;20390;-67
2023/12/20 03:12:26;;;;;;;2.22;1.30;;;;;;;;;;4970106;28;20506;-67
2023/12/20 03:14:52;;;;;;;3.45;1.70;;;;;;;;;;4969763;28;20090;-68
2023/12/20 03:17:17;;;;;;;2.58;1.50;;;;;;;;;;4968717;28;20102;-67
2023/12/20 03:19:42;;;;;;;3.22;1.65;;;;;;;;;;4969795;28;20434;-67
2023/12/20 03:22:07;;;;;;;5.45;2.03;;;;;;;;;;4969927;28;20018;-67
2023/12/20 03:24:33;;;;;;;4.70;1.80;;;;;;;;;;4968764;28;20030;-67
2023/12/20 03:26:58;;;;;;;3.72;1.77;;;;;;;;;;4969738;28;20030;-66
2023/12/20 03:29:23;;;;;;;3.35;1.80;;;;;;;;;;4973076;28;20089;-68
2023/12/20 03:31:48;;;;;;;4.25;2.33;;;;;;;;;;4969495;28;20015;-67
2023/12/20 03:34:14;;;;;;;4.13;1.75;;;;;;;;;;4972861;28;20411;-68
2023/12/20 03:36:39;;;;;;;3.45;1.75;;;;;;;;;;4972879;28;20046;-69
2023/12/20 03:39:05;;;;;;;2.90;1.67;;;;;;;;;;4971935;28;20079;-67
2023/12/20 03:41:30;;;;;;;3.65;1.92;;;;;;;;;;4972700;28;20074;-66
2023/12/20 03:43:55;;;;;;;5.25;1.70;;;;;;;;;;4972898;28;20022;-67
2023/12/20 03:46:20;;;;;;;4.07;2.00;;;;;;;;;;4971511;28;20027;-66
2023/12/20 03:48:46;;;;;;;3.90;1.70;;;;;;;;;;4968540;28;20070;-67
2023/12/20 03:51:11;;;;;;;3.58;2.22;;;;;;;;;;4972613;28;20031;-69
2023/12/20 03:53:36;;;;;;;3.65;1.77;;;;;;;;;;4972550;28;20026;-68
2023/12/20 03:56:01;;;;;;;4.10;2.28;;;;;;;;;;4971796;28;20022;-68
2023/12/20 03:58:27;;;;;;;2.58;1.42;;;;;;;;;;4972580;28;20019;-68
2023/12/20 04:00:52;;;;;;;4.18;2.05;;;;;;;;;;4972175;28;20069;-69
2023/12/20 04:03:17;;;;;;;3.50;1.83;;;;;;;;;;4972523;28;20019;-67
2023/12/20 04:05:42;;;;;;;3.90;2.10;;;;;;;;;;4972166;28;20637;-68
2023/12/20 04:08:08;;;;;;;4.93;2.35;;;;;;;;;;4977863;28;20375;-67
2023/12/20 04:10:33;;;;;;;3.65;2.17;;;;;;;;;;4971621;28;20489;-68
2023/12/20 04:12:58;;;;;;;5.50;2.08;;;;;;;;;;4972781;28;20050;-68
2023/12/20 04:15:23;;;;;;;3.97;2.30;;;;;;;;;;4971802;28;20177;-67
2023/12/20 04:17:49;;;;;;;4.80;2.60;;;;;;;;;;4971953;28;20019;-67
2023/12/20 04:20:14;;;;;;;4.32;2.35;;;;;;;;;;4972193;28;20029;-67
2023/12/20 04:22:39;;;;;;;4.85;2.45;;;;;;;;;;4972313;28;20027;-68
2023/12/20 04:25:05;;;;;;;4.53;2.33;;;;;;;;;;4970822;28;20037;-68
2023/12/20 04:27:30;;;;;;;4.63;2.35;;;;;;;;;;4964787;28;20046;-67
2023/12/20 04:29:55;;;;;;;4.97;2.42;;;;;;;;;;4967916;28;20162;-68
2023/12/20 04:32:20;;;;;;;7.55;2.20;;;;;;;;;;4971522;28;20022;-67
2023/12/20 04:34:45;;;;;;;5.75;2.40;;;;;;;;;;4972042;28;20011;-67
2023/12/20 04:37:12;;;;;;;4.43;2.42;;;;;;;;;;4970850;28;20018;-67
2023/12/20 04:39:37;;;;;;;3.95;2.17;;;;;;;;;;4970819;28;20033;-67
2023/12/20 04:42:02;;;;;;;5.85;2.80;;;;;;;;;;4971566;28;20019;-67
2023/12/20 04:44:28;;;;;;;6.30;3.20;;;;;;;;;;4971907;28;20023;-67
2023/12/20 04:46:53;;;;;;;5.38;2.33;;;;;;;;;;4966431;28;20019;-68
2023/12/20 04:49:18;;;;;;;4.93;2.78;;;;;;;;;;4971687;28;20382;-66
2023/12/20 04:51:43;;;;;;;5.03;2.47;;;;;;;;;;4971929;28;20093;-68
2023/12/20 04:54:09;;;;;;;5.00;2.60;;;;;;;;;;4971288;28;20423;-67
2023/12/20 04:56:35;;;;;;;3.92;2.47;;;;;;;;;;4970178;28;20321;-68
2023/12/20 04:59:00;;;;;;;5.95;2.83;;;;;;;;;;4968324;28;20084;-67
2023/12/20 05:01:25;;;;;;;7.35;3.42;;;;;;;;;;4968959;28;20063;-68
2023/12/20 05:03:50;;;;;;;5.60;2.80;;;;;;;;;;4968612;28;20568;-68
2023/12/20 05:06:16;;;;;;;7.50;3.22;;;;;;;;;;4968962;28;20684;-67
2023/12/20 05:08:41;;;;;;;5.97;3.35;;;;;;;;;;4973747;28;20549;-67
2023/12/20 05:11:06;;;;;;;7.28;3.33;;;;;;;;;;4969324;28;20023;-68
2023/12/20 05:13:31;;;;;;;6.68;3.53;;;;;;;;;;4971767;28;20021;-68
2023/12/20 05:15:56;;;;;;;6.00;2.88;;;;;;;;;;4972755;28;20434;-67
2023/12/20 05:18:22;;;;;;;7.07;3.55;;;;;;;;;;4972373;28;20077;-68
2023/12/20 05:20:48;;;;;;;6.38;3.35;;;;;;;;;;4965297;28;20046;-67
2023/12/20 05:23:13;;;;;;;5.75;3.20;;;;;;;;;;4967792;28;20106;-68
2023/12/20 05:25:39;;;;;;;5.93;2.92;;;;;;;;;;4970127;28;20046;-68
2023/12/20 05:28:04;;;;;;;6.78;3.42;;;;;;;;;;4969636;28;20018;-72
2023/12/20 05:30:29;;;;;;;7.05;3.45;;;;;;;;;;4966259;28;20046;-69
2023/12/20 05:32:54;;;;;;;8.73;3.70;;;;;;;;;;4971407;28;20026;-68
2023/12/20 05:35:20;;;;;;;6.20;3.30;;;;;;;;;;4970425;28;20092;-70
2023/12/20 05:37:45;;;;;;;8.45;3.47;;;;;;;;;;4969994;28;20030;-70
2023/12/20 05:40:10;;;;;;;5.85;3.38;;;;;;;;;;4965347;28;20074;-69
2023/12/20 05:42:37;;;;;;;7.20;3.95;;;;;;;;;;4967646;28;20105;-68
2023/12/20 05:45:02;;;;;;;7.32;3.90;;;;;;;;;;4967516;28;20073;-70
2023/12/20 05:47:28;;;;;;;7.13;3.38;;;;;;;;;;4967743;28;20509;-70
2023/12/20 05:49:53;;;;;;;7.40;4.10;;;;;;;;;;4970103;28;20023;-69
2023/12/20 05:52:18;;;;;;;6.63;3.80;;;;;;;;;;4964353;28;20042;-70
2023/12/20 05:54:43;;;;;;;6.93;3.90;;;;;;;;;;4969419;28;20674;-70
2023/12/20 05:57:09;;;;;;;6.57;3.55;;;;;;;;;;4969235;28;20031;-70
2023/12/20 05:59:34;;;;;;;6.38;3.55;;;;;;;;;;4965938;28;20026;-69
2023/12/20 06:01:59;;;;;;;7.85;3.80;;;;;;;;;;4969981;28;20015;-67
2023/12/20 06:04:24;;;;;;;6.93;3.53;;;;;;;;;;4967655;28;20011;-68
2023/12/20 06:06:50;;;;;;;7.72;3.55;;;;;;;;;;4968737;28;20019;-69
2023/12/20 06:09:15;;;;;;;5.47;3.00;;;;;;;;;;4963224;28;20379;-70
2023/12/20 06:11:40;;;;;;;8.32;3.40;;;;;;;;;;4970676;28;20025;-69
2023/12/20 06:14:06;;;;;;;12.93;4.32;;;;;;;;;;4967754;28;20019;-67
2023/12/20 06:16:31;;;;;;;6.43;3.25;;;;;;;;;;4968898;28;20034;-67
2023/12/20 06:18:56;;;;;;;8.98;3.00;;;;;;;;;;4970018;28;20023;-69
2023/12/20 06:21:21;;;;;;;8.20;3.72;;;;;;;;;;4969476;28;20019;-71
2023/12/20 06:23:46;;;;;;;14.02;4.20;;;;;;;;;;4968894;28;20030;-69
2023/12/20 06:26:12;;;;;;;6.53;3.13;;;;;;;;;;4968540;28;20026;-69
2023/12/20 06:28:37;;;;;;;8.05;3.38;;;;;;;;;;4968630;28;20023;-69
2023/12/20 06:31:03;;;;;;;9.88;2.75;;;;;;;;;;4965021;28;20027;-71
2023/12/20 06:33:29;;;;;;;5.30;2.80;;;;;;;;;;4970180;28;20250;-69
2023/12/20 06:35:54;;;;;;;8.05;2.88;;;;;;;;;;4968146;28;20066;-70
2023/12/20 06:38:19;;;;;;;5.57;2.90;;;;;;;;;;4968512;28;20023;-69
2023/12/20 06:40:45;;;;;;;5.63;3.00;;;;;;;;;;4969370;28;20074;-68
2023/12/20 06:43:11;;;;;;;7.65;3.53;;;;;;;;;;4969845;28;20051;-68
2023/12/20 06:45:37;;;;;;;5.78;2.63;;;;;;;;;;4969146;28;20023;-68
2023/12/20 06:48:02;;;;;;;6.60;3.10;;;;;;;;;;4964651;28;20482;-68
2023/12/20 06:50:27;;;;;;;6.40;2.50;;;;;;;;;;4970143;28;20046;-68
2023/12/20 06:52:52;;;;;;;5.68;3.00;;;;;;;;;;4970754;28;20582;-71
2023/12/20 06:55:18;;;;;;;7.43;2.75;;;;;;;;;;4969468;28;20475;-69
2023/12/20 06:57:43;;;;;;;6.57;2.75;;;;;;;;;;4969471;28;20550;-67
2023/12/20 07:00:12;;;;;;;4.72;2.53;;;;;;;;;;4971597;28;20033;-70
2023/12/20 07:02:37;;;;;;;5.68;2.63;;;;;;;;;;4972698;28;20031;-69
2023/12/20 07:05:03;;;;;;;7.32;2.75;;;;;;;;;;4973671;28;20159;-70
2023/12/20 07:07:28;;;;;;;4.97;2.38;;;;;;;;;;4972613;28;20519;-69
2023/12/20 07:09:53;;;;;;;5.60;2.85;;;;;;;;;;4974183;28;20033;-69
2023/12/20 07:12:19;;;;;;;6.28;2.30;;;;;;;;;;4973325;28;20019;-66
2023/12/20 07:14:44;;;;;;;4.60;2.20;;;;;;;;;;4973249;28;20026;-68
2023/12/20 07:17:11;;;;;;;5.32;2.35;;;;;;;;;;4972702;28;20033;-70
2023/12/20 07:19:37;;;;;;;5.68;2.25;;;;;;;;;;4973742;28;20049;-70
2023/12/20 07:22:02;;;;;;;3.95;1.38;;;;;;;;;;4972565;28;20042;-69
2023/12/20 07:24:27;;;;;;;7.13;1.83;;;;;;;;;;4971241;28;20122;-69
2023/12/20 07:26:53;;;;;;;6.32;1.60;;;;;;;;;;4972673;28;20038;-69
2023/12/20 07:29:18;;;;;;;5.45;1.60;;;;;;;;;;4972460;28;20391;-67
2023/12/20 07:31:43;;;;;;;4.00;1.23;;;;;;;;;;4973503;28;20106;-69
2023/12/20 07:34:08;;;;;;;5.10;1.55;;;;;;;;;;4973685;28;20089;-69
2023/12/20 07:36:33;;;;;;;7.03;1.90;;;;;;;;;;4973176;28;20102;-68
2023/12/20 07:38:59;;;;;;;6.60;1.65;;;;;;;;;;4972811;28;20031;-69
2023/12/20 07:41:24;;;;;;;5.90;1.27;;;;;;;;;;4973064;28;20052;-69
2023/12/20 07:43:49;;;;;;;4.43;1.20;;;;;;;;;;4973459;28;20031;-69
2023/12/20 07:46:14;;;;;;;5.30;1.63;;;;;;;;;;4973045;28;20074;-69
2023/12/20 07:48:41;;;;;;;5.82;1.90;;;;;;;;;;4967490;28;20023;-69
2023/12/20 07:51:07;;;;;;;7.88;1.65;;;;;;;;;;4972763;28;20022;-69
2023/12/20 07:53:33;;;;;;;4.65;1.63;;;;;;;;;;4972050;28;20513;-67
2023/12/20 07:55:58;;;;;;;4.13;1.70;;;;;;;;;;4972326;28;20059;-68
2023/12/20 07:58:23;;;;;;;5.40;1.50;;;;;;;;;;4971179;28;20019;-67
2023/12/20 08:00:48;;;;;;;3.10;1.30;;;;;;;;;;4967868;28;20030;-69
2023/12/20 08:03:14;;;;;;;5.00;1.40;;;;;;;;;;4972609;28;20030;-71
2023/12/20 08:05:42;;;;;;;5.45;1.48;;;;;;;;;;4972361;28;20035;-68
2023/12/20 08:08:07;;;;;;;6.20;1.80;;;;;;;;;;4974469;28;20026;-68
2023/12/20 08:10:32;;;;;;;5.65;1.67;;;;;;;;;;4972172;28;20461;-69
2023/12/20 08:12:58;;;;;;;6.45;1.48;;;;;;;;;;4972150;28;20023;-69
2023/12/20 08:15:23;;;;;;;4.93;1.40;;;;;;;;;;4972059;28;20011;-68
2023/12/20 08:17:50;;;;;;;9.90;1.58;;;;;;;;;;4972253;28;20030;-69
2023/12/20 08:20:15;;;;;;;3.42;1.20;;;;;;;;;;4972533;28;20026;-69
2023/12/20 08:22:41;;;;;;;4.70;1.10;;;;;;;;;;4971787;28;20030;-70
2023/12/20 08:25:06;;;;;;;7.82;2.03;;;;;;;;;;4972294;28;20049;-69
2023/12/20 08:27:31;;;;;;;4.93;1.20;;;;;;;;;;4971624;28;20398;-69
2023/12/20 08:29:57;;;;;;;3.55;1.10;;;;;;;;;;4972346;28;20426;-69
2023/12/20 08:32:24;;;;;;;2.95;1.20;;;;;;;;;;4970644;28;20493;-69
2023/12/20 08:34:50;;;;;;;5.72;1.42;;;;;;;;;;4972306;28;20018;-69
2023/12/20 08:37:15;;;;;;;2.20;1.08;;;;;;;;;;4970836;28;20015;-69
2023/12/20 08:39:40;;;;;;;3.53;1.10;;;;;;;;;;4971975;28;20066;-71
2023/12/20 08:42:06;;;;;;;3.80;1.42;;;;;;;;;;4971430;28;20027;-70
2023/12/20 08:44:31;;;;;;;5.00;1.58;;;;;;;;;;4970513;28;20023;-67
2023/12/20 08:46:57;;;;;;;4.32;1.33;;;;;;;;;;4971121;28;20027;-69
2023/12/20 08:49:22;;;;;;;2.97;1.35;;;;;;;;;;4970839;28;20026;-69
2023/12/20 08:51:47;;;;;;;2.60;1.40;;;;;;;;;;4971654;28;20034;-69
2023/12/20 08:54:13;;;;;;;4.25;1.60;;;;;;;;;;4970822;28;20019;-69
2023/12/20 08:56:38;;;;;;;3.35;1.40;;;;;;;;;;4970933;28;20115;-69
2023/12/20 08:59:03;;;;;;;4.03;1.48;;;;;;;;;;4970122;28;20030;-69
2023/12/20 09:01:28;;;;;;;4.63;1.30;;;;;;;;;;4971061;28;20254;-69
2023/12/20 09:03:54;;;;;;;8.10;1.73;;;;;;;;;;4971401;28;20102;-69
2023/12/20 09:06:19;;;;;;;5.03;1.40;;;;;;;;;;4971346;28;20069;-70
2023/12/20 09:08:44;;;;;;;7.50;1.77;;;;;;;;;;4970332;28;20098;-70
2023/12/20 09:11:09;;;;;;;9.93;2.00;;;;;;;;;;4971628;28;20025;-70
2023/12/20 09:13:35;;;;;;;5.47;1.70;;;;;;;;;;4970367;28;20023;-69
2023/12/20 09:16:00;;;;;;;8.82;1.65;;;;;;;;;;4970063;28;20077;-71
2023/12/20 09:18:25;;;;;;;5.65;1.88;;;;;;;;;;4970653;28;20160;-69
2023/12/20 09:20:51;;;;;;;7.35;1.75;;;;;;;;;;4970413;28;20031;-68
2023/12/20 09:23:18;;;;;;;7.22;1.63;;;;;;;;;;4969944;28;20487;-68
2023/12/20 09:25:43;;;;;;;4.35;1.45;;;;;;;;;;4969579;28;20031;-68
2023/12/20 09:28:08;;;;;;;7.90;2.05;;;;;;;;;;4970083;28;20018;-68
2023/12/20 09:30:35;;;;;;;5.40;1.40;;;;;;;;;;4965353;28;20512;-69
2023/12/20 09:33:00;;;;;;;3.47;1.67;;;;;;;;;;4969485;28;20410;-69
2023/12/20 09:35:25;;;;;;;7.05;1.80;;;;;;;;;;4970598;28;20094;-70
2023/12/20 09:37:51;;;;;;;7.30;1.80;;;;;;;;;;4968921;28;20094;-69
2023/12/20 09:40:18;;;;;;;8.90;1.77;;;;;;;;;;4969676;28;20479;-69
2023/12/20 09:42:49;;;;;;;7.75;2.13;;;;;;;;;;4970616;28;20120;-69
2023/12/20 09:45:16;;;;;;;7.18;1.58;;;;;;;;;;4965601;28;20466;-69
2023/12/20 09:47:43;;;;;;;4.20;1.63;;;;;;;;;;4969396;28;20033;-69
2023/12/20 09:50:08;;;;;;;5.55;1.65;;;;;;;;;;4969869;28;20027;-68
2023/12/20 09:52:34;;;;;;;8.32;1.95;;;;;;;;;;4970596;28;20048;-70
2023/12/20 09:55:01;;;;;;;6.72;1.83;;;;;;;;;;4969513;28;20014;-68
2023/12/20 09:57:26;;;;;;;6.55;1.65;;;;;;;;;;4969790;28;20082;-72
2023/12/20 09:59:52;;;;;;;12.23;2.30;;;;;;;;;;4964669;28;20030;-69
2023/12/20 10:02:18;;;;;;;4.57;1.42;;;;;;;;;;4969899;28;20019;-70
2023/12/20 10:04:47;;;;;;;11.32;2.60;;;;;;;;;;4970684;28;20101;-69
2023/12/20 10:07:13;;;;;;;9.88;2.75;;;;;;;;;;4976500;28;20028;-68
2023/12/20 10:09:38;;;;;;;8.55;2.08;;;;;;;;;;4968609;28;20030;-68
2023/12/20 10:12:05;;;;;;;8.18;2.10;;;;;;;;;;4970050;28;20046;-69
2023/12/20 10:14:30;;;;;;;6.25;2.55;;;;;;;;;;4970145;28;20026;-71
2023/12/20 10:17:01;;;;;;;8.48;2.00;;;;;;;;;;4969680;28;20041;-69
2023/12/20 10:19:26;;;;;;;8.48;2.10;;;;;;;;;;4968608;28;20050;-67
2023/12/20 10:21:52;;;;;;;7.75;1.95;;;;;;;;;;4970194;28;20065;-69
2023/12/20 10:24:17;;;;;;;12.55;2.20;;;;;;;;;;4969544;28;20101;-69
2023/12/20 10:26:43;;;;;;;9.00;1.75;;;;;;;;;;4969059;28;20482;-69
2023/12/20 10:29:09;;;;;;;8.93;1.92;;;;;;;;;;4969294;28;20023;-68
2023/12/20 10:31:35;;;;;;;8.75;2.03;;;;;;;;;;4968809;28;20466;-67
2023/12/20 10:34:01;;;;;;;11.35;2.35;;;;;;;;;;4969509;28;20065;-66
2023/12/20 10:36:26;;;;;;;9.77;1.65;;;;;;;;;;4971111;28;20102;-69
2023/12/20 10:38:52;;;;;;;4.07;1.65;;;;;;;;;;4972853;28;20114;-69
2023/12/20 10:41:22;;;;;;;6.00;1.67;;;;;;;;;;4972601;28;20041;-69
2023/12/20 10:43:47;;;;;;;9.77;2.17;;;;;;;;;;4971304;28;20763;-69
2023/12/20 10:46:13;;;;;;;9.65;1.83;;;;;;;;;;4972827;28;20499;-70
2023/12/20 10:48:39;;;;;;;5.10;1.60;;;;;;;;;;4972950;28;20030;-70
2023/12/20 10:51:04;;;;;;;6.32;2.00;;;;;;;;;;4972602;28;20015;-68
2023/12/20 10:53:30;;;;;;;7.63;1.95;;;;;;;;;;4972743;28;20029;-69
2023/12/20 10:55:56;;;;;;;11.93;1.95;;;;;;;;;;4972922;28;20026;-69
2023/12/20 10:58:22;;;;;;;6.55;1.90;;;;;;;;;;4970448;28;20751;-68
2023/12/20 11:00:50;;;;;;;8.82;2.22;;;;;;;;;;4972443;28;20026;-68
2023/12/20 11:03:17;;;;;;;3.53;1.33;;;;;;;;;;4973191;28;20018;-70
2023/12/20 11:06:21;;;;;;;7.75;1.88;;;;;;;;;;4973284;28;20037;-69
2023/12/20 11:08:58;;;;;;;8.02;1.92;;;;;;;;;;4949949;29;20115;-68
2023/12/20 11:11:29;;;;;;;6.75;2.20;;;;;;;;;;4928148;29;20066;-69
2023/12/20 11:14:08;;;;;;;9.02;2.03;;;;;;;;;;4961784;28;20054;-70
2023/12/20 11:16:36;;;;;;;15.85;2.17;;;;;;;;;;4971936;28;20101;-68
2023/12/20 11:19:04;;;;;;;5.75;1.75;;;;;;;;;;4970104;28;20030;-70
2023/12/20 11:21:30;;;;;;;4.90;1.15;;;;;;;;;;4972598;28;20030;-69
2023/12/20 11:23:55;;;;;;;4.47;1.38;;;;;;;;;;4970841;28;20541;-69
2023/12/20 11:26:27;;;;;;;6.60;1.55;;;;;;;;;;4970373;28;20034;-68
2023/12/20 11:28:52;;;;;;;10.07;1.52;;;;;;;;;;4972078;28;20493;-69
2023/12/20 11:31:19;;;;;;;5.60;1.90;;;;;;;;;;4968994;28;20023;-69
2023/12/20 11:33:48;;;;;;;16.08;2.08;;;;;;;;;;4973020;28;20069;-69
2023/12/20 11:36:13;;;;;;;;;;;;;;;;;;4972342;28;20623;-69
2023/12/20 11:38:38;;;;;;;7.20;1.58;;;;;;;;;;4971643;28;20382;-68
2023/12/20 11:41:05;;;;;;;4.10;1.50;;;;;;;;;;4971708;28;20037;-68
2023/12/20 11:43:37;;;;;;;5.45;1.77;;;;;;;;;;4970808;28;20046;-68
2023/12/20 11:46:06;;;;;;;5.22;1.70;;;;;;;;;;4968843;28;20027;-68
2023/12/20 11:48:31;;;;;;;5.05;1.40;;;;;;;;;;4971537;28;20115;-69
2023/12/20 11:50:57;;;;;;;11.38;2.05;;;;;;;;;;4971143;28;20442;-68
2023/12/20 11:53:22;;;;;;;10.25;1.88;;;;;;;;;;4971415;28;20034;-69
2023/12/20 11:55:48;;;;;;;4.07;1.75;;;;;;;;;;4970829;28;20101;-69
2023/12/20 11:58:15;;;;;;;21.50;2.65;;;;;;;;;;4971917;28;20029;-69
2023/12/20 12:00:41;;;;;;;13.07;1.80;;;;;;;;;;4970893;28;20019;-70
2023/12/20 12:03:06;;;;;;;8.32;1.70;;;;;;;;;;4972072;28;20515;-69
2023/12/20 12:05:32;;;;;;;6.63;1.80;;;;;;;;;;4970057;28;20110;-70
2023/12/20 12:07:58;;;;;;;5.25;1.25;;;;;;;;;;4972475;28;20165;-70
2023/12/20 12:10:23;;;;;;;9.00;1.92;;;;;;;;;;4972007;28;20027;-69
2023/12/20 12:12:48;;;;;;;2.90;1.20;;;;;;;;;;4972460;28;20080;-68
2023/12/20 12:15:14;;;;;;;5.07;1.65;;;;;;;;;;4971638;28;20026;-69
2023/12/20 12:17:39;;;;;;;14.32;1.98;;;;;;;;;;4971755;28;20116;-71
2023/12/20 12:20:05;;;;;;;4.93;1.60;;;;;;;;;;4972157;28;20026;-67
2023/12/20 12:22:30;;;;;;;3.30;1.33;;;;;;;;;;4972392;28;20014;-69
2023/12/20 12:24:58;;;;;;;6.82;2.10;;;;;;;;;;4971540;28;20024;-71
2023/12/20 12:27:24;;;;;;;6.75;1.95;;;;;;;;;;4971174;28;20074;-69
2023/12/20 12:30:03;;;;;;;8.68;1.85;;;;;;;;;;4971648;28;20023;-68
2023/12/20 12:32:28;;;;;;;9.13;1.80;;;;;;;;;;4970519;28;20030;-69
2023/12/20 12:34:54;;;;;;;6.47;1.70;;;;;;;;;;4972741;28;20015;-67
2023/12/20 12:37:19;;;;;;;10.93;1.90;;;;;;;;;;4971408;28;20019;-71
2023/12/20 12:39:46;;;;;;;5.40;1.70;;;;;;;;;;4970945;28;20498;-68
2023/12/20 12:42:11;;;;;;;9.15;2.15;;;;;;;;;;4971642;28;20023;-71
2023/12/20 12:44:36;;;;;;;2.83;1.20;;;;;;;;;;4968327;28;20077;-68
2023/12/20 12:47:03;;;;;;;2.75;1.20;;;;;;;;;;4970557;28;20086;-70
2023/12/20 12:49:28;;;;;;;6.10;1.58;;;;;;;;;;4972633;28;20015;-70
2023/12/20 12:51:56;;;;;;;3.55;1.60;;;;;;;;;;4989298;23;20529;-71
2023/12/20 12:54:21;;;;;;;3.55;1.20;;;;;;;;;;4969956;28;20122;-70
2023/12/20 12:56:47;;;;;;;6.18;1.23;;;;;;;;;;4970416;28;20142;-71
2023/12/20 12:59:12;;;;;;;6.13;1.55;;;;;;;;;;4970685;28;20030;-71
2023/12/20 13:01:38;;;;;;;4.47;1.40;;;;;;;;;;4970250;28;20022;-72
2023/12/20 13:04:06;;;;;;;5.35;1.67;;;;;;;;;;4970560;28;20030;-70
2023/12/20 13:06:32;;;;;;;5.80;1.50;;;;;;;;;;4969838;28;20018;-69
2023/12/20 13:08:57;;;;;;;13.18;1.80;;;;;;;;;;4969263;28;20033;-69
2023/12/20 13:11:22;;;;;;;9.43;1.73;;;;;;;;;;4969405;28;20101;-71
2023/12/20 13:13:47;;;;;;;10.43;2.35;;;;;;;;;;4969769;28;20085;-72
2023/12/20 13:16:13;;;;;;;11.32;2.10;;;;;;;;;;4969214;28;20501;-70
2023/12/20 13:18:42;;;;;;;7.35;1.40;;;;;;;;;;4969999;28;20019;-69
2023/12/20 13:21:07;;;;;;;;;;;;;;;;;;4969783;28;20474;-70
2023/12/20 13:23:32;;;;;;;9.67;1.77;;;;;;;;;;4969284;28;19933;-68
2023/12/20 13:25:57;;;;;;;8.73;1.60;;;;;;;;;;4982977;28;20272;-69
2023/12/20 13:28:23;;;;;;;5.78;1.42;;;;;;;;;;4969185;28;20050;-71
2023/12/20 13:30:48;;;;;;;8.70;2.05;;;;;;;;;;4964211;28;20034;-69
2023/12/20 13:33:13;;;;;;;10.15;1.75;;;;;;;;;;4969583;28;20071;-72
2023/12/20 13:35:39;;;;;;;5.28;1.45;;;;;;;;;;4969427;28;20022;-70
2023/12/20 13:38:04;;;;;;;7.82;1.23;;;;;;;;;;4968403;28;20035;-70
2023/12/20 13:40:30;;;;;;;10.73;1.50;;;;;;;;;;4984216;28;20197;-72
2023/12/20 13:42:55;;;;;;;5.88;1.70;;;;;;;;;;4970167;28;20106;-71
2023/12/20 13:45:20;;;;;;;8.07;2.13;;;;;;;;;;4968567;28;20023;-71
2023/12/20 13:47:45;;;;;;;3.97;1.50;;;;;;;;;;4969244;28;20027;-71
2023/12/20 13:50:10;;;;;;;3.72;1.55;;;;;;;;;;4968107;28;20094;-70
2023/12/20 13:52:36;;;;;;;8.70;1.63;;;;;;;;;;4968639;28;20038;-73
2023/12/20 13:55:01;;;;;;;4.35;1.17;;;;;;;;;;4968620;28;20027;-72
2023/12/20 13:57:28;;;;;;;6.07;1.85;;;;;;;;;;4968582;28;20015;-72
2023/12/20 13:59:54;;;;;;;7.95;1.63;;;;;;;;;;4968646;28;20041;-70
2023/12/20 14:02:19;;;;;;;4.47;1.33;;;;;;;;;;4968690;28;20023;-71
2023/12/20 14:04:44;;;;;;;4.20;1.65;;;;;;;;;;4968679;28;20019;-71
2023/12/20 14:07:10;;;;;;;2.47;1.20;;;;;;;;;;4970933;28;20115;-72
2023/12/20 14:09:35;;;;;;;4.97;1.40;;;;;;;;;;4968684;28;20077;-71
2023/12/20 14:12:00;;;;;;;8.82;2.72;;;;;;;;;;4969168;28;20421;-72
2023/12/20 14:14:26;;;;;;;5.88;1.30;;;;;;;;;;4968513;28;20070;-71
2023/12/20 14:16:51;;;;;;;7.68;1.23;;;;;;;;;;4967862;28;20042;-70
2023/12/20 14:19:16;;;;;;;5.70;1.35;;;;;;;;;;4968269;28;20023;-67
2023/12/20 14:21:41;;;;;;;4.80;1.67;;;;;;;;;;4968594;28;20109;-69
2023/12/20 14:24:07;;;;;;;5.70;1.50;;;;;;;;;;4968080;28;20031;-69
2023/12/20 14:26:32;;;;;;;3.40;1.20;;;;;;;;;;4967874;28;20088;-68
2023/12/20 14:28:57;;;;;;;6.32;1.40;;;;;;;;;;4968608;28;20095;-69
2023/12/20 14:31:24;;;;;;;5.60;1.25;;;;;;;;;;4964561;28;20015;-70
2023/12/20 14:33:50;;;;;;;6.43;1.10;;;;;;;;;;4968205;28;20038;-69